Aubange, Belgium
Current Conditions -  °F | °C
As of 11:20 AM on Sunday 21 Dec 2014 (Local Time) from ELLX Reporting Station
Broken Clouds Broken Clouds  
Wind Chill: 34°   Ceiling: 500
Heat Index: 39°   Visibility: 5mi
Dew Point: 39°   Wind: 8mph
Humidity: 100%   Direction: 230°SW
Pressure: 30.48"   Gusts: NA
Location:  49.57°N, 5.8°E
Report Text: ELLX 211020Z 23007KT 200V260 8000 BKN005 04/04 Q1032 NOSIG
Loading
Personal Weather Stations






























Interactive Weather Map New forecast layout! Learn more

10-Day Weather Forecast

Advertisements
Track Severe Weather on mobile